createdAt,value
2019-05-01T00:02:01.870Z,12.50
2019-05-01T00:04:45.992Z,12.40
2019-05-01T00:07:26.630Z,12.70
2019-05-01T00:09:56.828Z,12.50
2019-05-01T00:12:27.330Z,12.10
2019-05-01T00:14:57.540Z,12.30
2019-05-01T00:17:27.980Z,12.40
2019-05-01T00:19:57.958Z,12.30
2019-05-01T00:22:28.497Z,12.40
2019-05-01T00:24:58.670Z,12.40
2019-05-01T00:27:28.582Z,12.50
2019-05-01T00:29:58.495Z,12.60
2019-05-01T00:32:28.802Z,12.60
2019-05-01T00:34:58.742Z,12.40
2019-05-01T00:37:28.726Z,12.10
2019-05-01T00:39:58.526Z,12.00
2019-05-01T00:42:28.946Z,11.90
2019-05-01T00:44:58.743Z,12.00
2019-05-01T00:47:28.674Z,11.80
2019-05-01T00:49:58.608Z,12.10
2019-05-01T00:52:28.501Z,12.30
2019-05-01T00:55:16.305Z,12.20
2019-05-01T00:57:56.668Z,12.20
2019-05-01T01:00:43.251Z,12.10
2019-05-01T01:03:11.900Z,12.20
2019-05-01T01:05:42.235Z,12.20
2019-05-01T01:08:12.119Z,12.30
2019-05-01T01:10:42.034Z,11.90
2019-05-01T01:13:11.954Z,12.00
2019-05-01T01:15:41.914Z,12.10
2019-05-01T01:18:11.897Z,11.90
2019-05-01T01:20:41.986Z,11.90
2019-05-01T01:23:12.387Z,11.90
2019-05-01T01:25:42.399Z,11.70
2019-05-01T01:28:12.315Z,11.70
2019-05-01T01:30:55.434Z,11.50
2019-05-01T01:33:14.497Z,11.50
2019-05-01T01:35:44.509Z,11.50
2019-05-01T01:38:14.717Z,11.30
2019-05-01T01:40:45.419Z,11.50
2019-05-01T01:43:35.189Z,11.50
2019-05-01T01:46:23.880Z,11.60
2019-05-01T01:48:54.273Z,11.60
2019-05-01T01:51:24.783Z,11.40
2019-05-01T01:53:56.960Z,11.40
2019-05-01T01:56:27.378Z,11.50
2019-05-01T01:58:58.556Z,11.60
2019-05-01T02:01:36.137Z,11.50
2019-05-01T02:04:08.804Z,11.50
2019-05-01T02:06:39.700Z,11.40
2019-05-01T02:09:11.284Z,11.30
2019-05-01T02:11:41.988Z,11.20
2019-05-01T02:14:12.197Z,11.30
2019-05-01T02:16:43.384Z,11.50
2019-05-01T02:19:13.788Z,11.30
2019-05-01T02:21:43.703Z,11.20
2019-05-01T02:24:13.676Z,11.20
2019-05-01T02:26:55.029Z,11.20
2019-05-01T02:29:44.703Z,11.10
2019-05-01T02:32:18.450Z,11.00
2019-05-01T02:34:51.513Z,10.90
2019-05-01T02:37:23.692Z,11.00
2019-05-01T02:39:56.359Z,11.10
2019-05-01T02:42:30.354Z,11.30
2019-05-01T02:45:04.713Z,11.30
2019-05-01T02:47:38.286Z,11.30
2019-05-01T02:50:12.424Z,11.30
2019-05-01T02:52:45.385Z,11.30
2019-05-01T02:55:17.689Z,11.20
2019-05-01T02:57:49.291Z,10.90
2019-05-01T03:00:19.499Z,10.60
2019-05-01T03:02:50.095Z,10.30
2019-05-01T03:05:20.358Z,10.30
2019-05-01T03:07:50.759Z,10.60
2019-05-01T03:10:21.263Z,10.60
2019-05-01T03:12:53.535Z,10.50
2019-05-01T03:15:26.991Z,10.80
2019-05-01T03:18:02.427Z,10.90
2019-05-01T03:20:44.018Z,10.70
2019-05-01T03:23:22.091Z,10.80
2019-05-01T03:25:52.797Z,10.80
2019-05-01T03:28:24.675Z,10.80
2019-05-01T03:30:54.475Z,10.40
2019-05-01T03:33:24.693Z,10.20
2019-05-01T03:35:55.490Z,10.30
2019-05-01T03:38:27.062Z,10.50
2019-05-01T03:40:58.081Z,10.40
2019-05-01T03:43:28.676Z,10.10
2019-05-01T03:45:59.024Z,10.00
2019-05-01T03:48:29.390Z,10.20
2019-05-01T03:51:00.201Z,10.40
2019-05-01T03:53:30.981Z,10.10
2019-05-01T03:56:02.077Z,10.00
2019-05-01T03:58:33.418Z,10.10
2019-05-01T04:01:14.777Z,10.40
2019-05-01T04:03:46.146Z,10.40
2019-05-01T04:06:16.744Z,10.40
2019-05-01T04:08:47.476Z,10.30
2019-05-01T04:11:18.069Z,10.40
2019-05-01T04:13:48.965Z,10.40
2019-05-01T04:16:20.353Z,10.30
2019-05-01T04:18:51.248Z,10.10
2019-05-01T04:21:23.820Z,9.80
2019-05-01T04:23:54.318Z,9.60
2019-05-01T04:26:24.231Z,9.70
2019-05-01T04:28:59.257Z,9.70
2019-05-01T04:31:43.816Z,9.70
2019-05-01T04:34:15.895Z,9.70
2019-05-01T04:36:47.889Z,9.80
2019-05-01T04:39:18.081Z,9.60
2019-05-01T04:41:48.287Z,9.40
2019-05-01T04:44:19.027Z,9.60
2019-05-01T04:46:50.276Z,9.70
2019-05-01T04:49:21.274Z,9.80
2019-05-01T04:51:51.583Z,10.00
2019-05-01T04:54:22.768Z,9.50
2019-05-01T04:56:53.130Z,9.40
2019-05-01T04:59:23.481Z,9.40
2019-05-01T05:02:01.950Z,9.60
2019-05-01T05:04:32.437Z,9.80
2019-05-01T05:07:03.039Z,9.90
2019-05-01T05:09:38.766Z,10.00
2019-05-01T05:12:11.325Z,9.90
2019-05-01T05:14:59.726Z,9.50
2019-05-01T05:17:30.426Z,9.50
2019-05-01T05:20:00.818Z,9.50
2019-05-01T05:22:31.731Z,9.60
2019-05-01T05:25:02.144Z,9.60
2019-05-01T05:27:34.116Z,9.60
2019-05-01T05:30:05.106Z,9.70
2019-05-01T05:32:38.955Z,9.80
2019-05-01T05:35:10.740Z,9.80
2019-05-01T05:37:58.146Z,9.70
2019-05-01T05:40:33.269Z,9.70
2019-05-01T05:43:04.364Z,9.90
2019-05-01T05:45:35.761Z,10.10
2019-05-01T05:48:05.861Z,10.20
2019-05-01T05:50:40.886Z,10.30
2019-05-01T05:53:19.450Z,10.40
2019-05-01T05:55:58.607Z,10.50
2019-05-01T05:58:51.717Z,10.40
2019-05-01T06:01:44.928Z,10.50
2019-05-01T06:04:38.730Z,10.50
2019-05-01T06:07:16.798Z,10.60
2019-05-01T06:09:51.141Z,10.80
2019-05-01T06:12:23.614Z,10.80
2019-05-01T06:15:02.478Z,10.80
2019-05-01T06:17:46.342Z,10.80
2019-05-01T06:20:26.015Z,10.90
2019-05-01T06:23:15.776Z,10.90
2019-05-01T06:25:54.176Z,11.00
2019-05-01T06:28:24.962Z,10.90
2019-05-01T06:30:55.447Z,10.80
2019-05-01T06:33:25.536Z,10.90
2019-05-01T06:35:55.792Z,11.00
2019-05-01T06:38:26.433Z,10.90
2019-05-01T06:40:59.881Z,10.80
2019-05-01T06:43:45.243Z,11.10
2019-05-01T06:46:22.122Z,11.10
2019-05-01T06:49:00.701Z,11.30
2019-05-01T06:51:36.710Z,11.50
2019-05-01T06:54:16.087Z,11.50
2019-05-01T06:56:45.878Z,11.50
2019-05-01T06:59:18.447Z,11.90
2019-05-01T07:01:53.282Z,11.90
2019-05-01T07:04:23.086Z,12.00
2019-05-01T07:06:53.886Z,11.80
2019-05-01T07:09:28.207Z,11.90
2019-05-01T07:11:58.989Z,12.00
2019-05-01T07:14:30.600Z,12.00
2019-05-01T07:17:01.794Z,12.20
2019-05-01T07:19:46.552Z,12.30
2019-05-01T07:22:16.468Z,12.80
2019-05-01T07:24:49.099Z,13.00
2019-05-01T07:27:23.574Z,13.00
2019-05-01T07:29:52.696Z,13.50
2019-05-01T07:32:23.688Z,13.60
2019-05-01T07:34:56.870Z,13.70
2019-05-01T07:37:27.746Z,13.30
2019-05-01T07:39:58.349Z,14.30
2019-05-01T07:42:30.323Z,14.10
2019-05-01T07:45:18.423Z,14.10
2019-05-01T07:47:50.994Z,14.00
2019-05-01T07:50:24.216Z,14.00
2019-05-01T07:52:55.109Z,14.20
2019-05-01T07:55:38.621Z,14.70
2019-05-01T07:58:15.664Z,15.00
2019-05-01T08:00:59.093Z,15.60
2019-05-01T08:03:29.005Z,15.20
2019-05-01T08:05:59.311Z,14.90
2019-05-01T08:08:29.483Z,14.80
2019-05-01T08:11:04.533Z,15.30
2019-05-01T08:13:35.091Z,15.40
2019-05-01T08:16:07.016Z,15.40
2019-05-01T08:18:36.844Z,15.40
2019-05-01T08:21:21.092Z,15.50
2019-05-01T08:23:50.790Z,16.20
2019-05-01T08:26:20.740Z,16.00
2019-05-01T08:29:08.308Z,16.10
2019-05-01T08:31:58.752Z,16.20
2019-05-01T08:34:29.799Z,16.10
2019-05-01T08:37:00.990Z,16.30
2019-05-01T08:39:30.903Z,17.00
2019-05-01T08:42:02.988Z,18.00
2019-05-01T08:44:37.022Z,18.00
2019-05-01T08:47:25.209Z,17.70
2019-05-01T08:49:54.053Z,17.70
2019-05-01T08:52:23.967Z,18.40
2019-05-01T08:54:54.930Z,18.20
2019-05-01T08:57:29.102Z,18.60
2019-05-01T09:00:00.406Z,19.30
2019-05-01T09:02:28.436Z,19.60
2019-05-01T09:05:02.521Z,19.00
2019-05-01T09:07:30.054Z,18.90
2019-05-01T09:10:00.044Z,18.60
2019-05-01T09:12:30.055Z,18.50
2019-05-01T09:15:00.069Z,18.70
2019-05-01T09:17:30.176Z,19.40
2019-05-01T09:20:00.092Z,19.10
2019-05-01T09:22:30.790Z,19.50
2019-05-01T09:25:01.941Z,20.20
2019-05-01T09:27:39.962Z,19.50
2019-05-01T09:30:12.328Z,20.20
2019-05-01T09:32:45.869Z,20.40
2019-05-01T09:35:15.940Z,19.90
2019-05-01T09:37:46.198Z,20.60
2019-05-01T09:40:17.703Z,20.90
2019-05-01T09:42:47.601Z,21.30
2019-05-01T09:45:18.790Z,21.60
2019-05-01T09:47:48.995Z,21.30
2019-05-01T09:50:18.915Z,21.60
2019-05-01T09:52:55.103Z,21.30
2019-05-01T09:55:39.184Z,21.70
2019-05-01T09:58:09.295Z,22.60
2019-05-01T10:00:39.193Z,22.40
2019-05-01T10:03:13.129Z,22.60
2019-05-01T10:05:42.939Z,21.40
2019-05-01T10:08:12.560Z,22.00
2019-05-01T10:10:42.876Z,21.70
2019-05-01T10:13:13.099Z,21.30
2019-05-01T10:15:43.217Z,21.80
2019-05-01T10:18:13.327Z,21.80
2019-05-01T10:20:43.432Z,22.40
2019-05-01T10:23:15.000Z,21.80
2019-05-01T10:25:48.026Z,22.10
2019-05-01T10:28:36.272Z,21.70
2019-05-01T10:31:11.875Z,21.50
2019-05-01T10:33:43.868Z,21.60
2019-05-01T10:36:21.287Z,22.10
2019-05-01T10:38:51.260Z,22.90
2019-05-01T10:41:21.271Z,22.30
2019-05-01T10:43:51.185Z,23.30
2019-05-01T10:46:21.098Z,22.50
2019-05-01T10:48:51.110Z,22.70
2019-05-01T10:51:21.220Z,23.10
2019-05-01T10:53:51.134Z,23.00
2019-05-01T10:56:21.541Z,23.20
2019-05-01T10:58:51.750Z,23.00
2019-05-01T11:01:35.428Z,22.60
2019-05-01T11:04:05.745Z,22.40
2019-05-01T11:06:35.840Z,22.30
2019-05-01T11:09:08.334Z,22.40
2019-05-01T11:11:38.516Z,22.80
2019-05-01T11:14:08.530Z,23.20
2019-05-01T11:16:38.441Z,24.00
2019-05-01T11:19:08.751Z,24.00
2019-05-01T11:21:38.766Z,23.20
2019-05-01T11:24:08.873Z,23.20
2019-05-01T11:26:39.128Z,22.80
2019-05-01T11:29:09.533Z,24.00
2019-05-01T11:31:47.264Z,23.20
2019-05-01T11:34:34.869Z,22.70
2019-05-01T11:37:06.454Z,23.00
2019-05-01T11:39:50.032Z,22.80
2019-05-01T11:42:20.239Z,23.50
2019-05-01T11:44:50.614Z,23.50
2019-05-01T11:47:20.558Z,24.00
2019-05-01T11:49:50.569Z,23.70
2019-05-01T11:52:20.369Z,23.40
2019-05-01T11:54:50.298Z,23.50
2019-05-01T11:57:20.211Z,23.70
2019-05-01T11:59:50.125Z,23.80
2019-05-01T12:02:20.136Z,24.70
2019-05-01T12:04:50.056Z,25.30
2019-05-01T12:07:19.964Z,24.70
2019-05-01T12:09:49.975Z,24.00
2019-05-01T12:12:21.461Z,24.40
2019-05-01T12:14:51.676Z,25.10
2019-05-01T12:17:29.157Z,25.10
2019-05-01T12:19:59.065Z,24.40
2019-05-01T12:22:29.178Z,23.70
2019-05-01T12:24:59.089Z,23.70
2019-05-01T12:27:29.102Z,23.50
2019-05-01T12:29:59.015Z,23.50
2019-05-01T12:32:29.025Z,24.30
2019-05-01T12:34:59.138Z,24.30
2019-05-01T12:37:44.483Z,24.20
2019-05-01T12:40:17.740Z,23.90
2019-05-01T12:42:48.537Z,24.80
2019-05-01T12:45:19.543Z,24.50
2019-05-01T12:47:54.066Z,24.00
2019-05-01T12:50:23.979Z,23.80
2019-05-01T12:52:57.923Z,24.60
2019-05-01T12:55:45.141Z,24.10
2019-05-01T12:58:15.448Z,24.30
2019-05-01T13:00:51.329Z,23.90
2019-05-01T13:03:21.324Z,23.80
2019-05-01T13:05:51.378Z,24.10
2019-05-01T13:08:21.593Z,24.30
2019-05-01T13:10:51.761Z,24.70
2019-05-01T13:13:21.906Z,25.60
2019-05-01T13:15:52.111Z,24.60
2019-05-01T13:18:22.223Z,25.30
2019-05-01T13:20:52.534Z,24.80
2019-05-01T13:23:22.544Z,24.50
2019-05-01T13:25:54.027Z,24.30
2019-05-01T13:28:34.457Z,23.90
2019-05-01T13:31:08.794Z,24.00
2019-05-01T13:33:38.809Z,25.00
2019-05-01T13:36:09.312Z,24.50
2019-05-01T13:38:39.419Z,24.30
2019-05-01T13:41:10.123Z,24.30
2019-05-01T13:43:40.131Z,24.40
2019-05-01T13:46:10.044Z,24.70
2019-05-01T13:48:40.353Z,24.90
2019-05-01T13:51:10.464Z,24.80
2019-05-01T13:53:40.376Z,24.50
2019-05-01T13:56:10.983Z,24.30
2019-05-01T13:58:40.988Z,24.80
2019-05-01T14:01:11.199Z,24.70
2019-05-01T14:03:41.699Z,25.60
2019-05-01T14:06:12.008Z,25.00
2019-05-01T14:08:43.022Z,24.50
2019-05-01T14:11:13.404Z,24.10
2019-05-01T14:13:43.318Z,24.00
2019-05-01T14:16:14.458Z,24.00
2019-05-01T14:18:44.422Z,24.20
2019-05-01T14:21:21.709Z,24.00
2019-05-01T14:23:59.490Z,24.40
2019-05-01T14:26:30.483Z,24.70
2019-05-01T14:29:00.395Z,24.90
2019-05-01T14:31:30.409Z,24.30
2019-05-01T14:34:00.366Z,24.10
2019-05-01T14:36:30.345Z,24.50
2019-05-01T14:39:00.249Z,24.50
2019-05-01T14:41:30.282Z,24.20
2019-05-01T14:44:00.170Z,24.10
2019-05-01T14:46:30.478Z,24.30
2019-05-01T14:49:00.389Z,24.20
2019-05-01T14:51:30.322Z,24.60
2019-05-01T14:54:00.220Z,24.90
2019-05-01T14:56:30.339Z,24.10
2019-05-01T14:59:00.633Z,23.80
2019-05-01T15:01:30.545Z,24.30
2019-05-01T15:04:00.458Z,24.50
2019-05-01T15:06:30.371Z,24.60
2019-05-01T15:09:00.381Z,24.40
2019-05-01T15:11:30.394Z,24.20
2019-05-01T15:14:02.175Z,24.10
2019-05-01T15:16:34.262Z,24.00
2019-05-01T15:19:18.026Z,24.40
2019-05-01T15:21:47.941Z,24.60
2019-05-01T15:24:17.855Z,24.20
2019-05-01T15:26:47.767Z,23.70
2019-05-01T15:29:17.680Z,23.50
2019-05-01T15:31:47.734Z,23.40
2019-05-01T15:34:17.705Z,23.60
2019-05-01T15:36:47.620Z,23.80
2019-05-01T15:39:25.297Z,24.00
2019-05-01T15:41:56.663Z,23.80
2019-05-01T15:44:28.034Z,23.40
2019-05-01T15:46:58.279Z,23.40
2019-05-01T15:49:28.704Z,23.50
2019-05-01T15:51:58.894Z,23.70
2019-05-01T15:54:29.198Z,23.70
2019-05-01T15:57:01.320Z,23.40
2019-05-01T15:59:31.452Z,23.70
2019-05-01T16:02:02.275Z,23.90
2019-05-01T16:04:32.199Z,23.80
2019-05-01T16:07:02.603Z,23.40
2019-05-01T16:09:32.619Z,23.10
2019-05-01T16:12:16.385Z,23.40
2019-05-01T16:14:46.789Z,23.30
2019-05-01T16:17:17.193Z,23.30
2019-05-01T16:19:47.601Z,23.20
2019-05-01T16:22:17.610Z,22.80
2019-05-01T16:24:47.523Z,22.60
2019-05-01T16:27:17.436Z,22.30
2019-05-01T16:29:47.348Z,22.10
2019-05-01T16:32:17.656Z,22.10
2019-05-01T16:34:47.570Z,22.30
2019-05-01T16:37:17.581Z,22.80
2019-05-01T16:39:55.162Z,23.00
2019-05-01T16:42:26.747Z,23.10
2019-05-01T16:44:56.656Z,23.20
2019-05-01T16:47:26.670Z,23.30
2019-05-01T16:49:56.586Z,23.40
2019-05-01T16:52:28.362Z,23.50
2019-05-01T16:54:59.601Z,23.30
2019-05-01T16:57:30.157Z,23.10
2019-05-01T17:00:00.465Z,22.70
2019-05-01T17:02:34.996Z,22.40
2019-05-01T17:05:13.366Z,22.10
2019-05-01T17:07:44.849Z,22.00
2019-05-01T17:10:25.182Z,22.20
2019-05-01T17:12:56.662Z,22.30
2019-05-01T17:15:31.793Z,22.30
2019-05-01T17:18:02.011Z,22.40
2019-05-01T17:20:32.503Z,22.20
2019-05-01T17:23:05.523Z,22.20
2019-05-01T17:25:34.689Z,22.40
2019-05-01T17:28:08.197Z,22.50
2019-05-01T17:30:43.265Z,22.30
2019-05-01T17:33:20.148Z,22.40
2019-05-01T17:35:46.140Z,22.20
2019-05-01T17:38:16.150Z,21.80
2019-05-01T17:40:47.443Z,21.60
2019-05-01T17:43:18.730Z,21.60
2019-05-01T17:45:48.646Z,21.90
2019-05-01T17:48:18.558Z,21.80
2019-05-01T17:50:48.567Z,21.70
2019-05-01T17:53:18.579Z,21.70
2019-05-01T17:55:48.504Z,21.60
2019-05-01T17:58:18.405Z,21.50
2019-05-01T18:01:08.472Z,21.30
2019-05-01T18:03:56.867Z,21.30
2019-05-01T18:06:28.352Z,21.30
2019-05-01T18:09:03.215Z,21.10
2019-05-01T18:11:30.044Z,21.10
2019-05-01T18:13:59.964Z,21.10
2019-05-01T18:16:30.068Z,21.00
2019-05-01T18:18:59.986Z,20.90
2019-05-01T18:21:30.486Z,21.00
2019-05-01T18:24:05.423Z,20.90
2019-05-01T18:26:53.220Z,20.70
2019-05-01T18:29:24.589Z,20.70
2019-05-01T18:31:54.618Z,20.50
2019-05-01T18:34:24.742Z,20.40
2019-05-01T18:37:12.438Z,20.30
2019-05-01T18:39:43.940Z,20.20
2019-05-01T18:42:14.915Z,20.10
2019-05-01T18:44:47.448Z,20.00
2019-05-01T18:47:17.596Z,19.90
2019-05-01T18:49:47.844Z,19.90
2019-05-01T18:52:18.504Z,19.90
2019-05-01T18:54:48.533Z,19.80
2019-05-01T18:57:19.892Z,19.80
2019-05-01T18:59:50.208Z,19.70
2019-05-01T19:02:24.663Z,19.60
2019-05-01T19:04:51.903Z,19.60
2019-05-01T19:07:21.812Z,19.40
2019-05-01T19:09:52.021Z,19.40
2019-05-01T19:12:22.230Z,19.40
2019-05-01T19:14:52.831Z,19.30
2019-05-01T19:17:23.634Z,19.40
2019-05-01T19:19:53.813Z,19.30
2019-05-01T19:22:24.537Z,19.20
2019-05-01T19:24:57.107Z,19.20
2019-05-01T19:27:26.340Z,19.20
2019-05-01T19:29:58.045Z,19.20
2019-05-01T19:32:29.596Z,19.20
2019-05-01T19:34:59.852Z,19.10
2019-05-01T19:37:31.038Z,19.00
2019-05-01T19:40:01.763Z,18.80
2019-05-01T19:42:31.840Z,18.70
2019-05-01T19:45:02.047Z,18.70
2019-05-01T19:47:31.992Z,18.60
2019-05-01T19:50:07.502Z,18.60
2019-05-01T19:52:37.792Z,18.50
2019-05-01T19:55:08.464Z,18.50
2019-05-01T19:57:38.484Z,18.40
2019-05-01T20:00:10.626Z,18.30
2019-05-01T20:02:40.712Z,18.30
2019-05-01T20:05:11.296Z,18.30
2019-05-01T20:07:41.653Z,18.20
2019-05-01T20:10:12.726Z,18.10
2019-05-01T20:12:42.696Z,18.00
2019-05-01T20:15:13.063Z,18.00
2019-05-01T20:17:43.280Z,17.90
2019-05-01T20:20:14.571Z,17.90
2019-05-01T20:22:48.127Z,17.80
2019-05-01T20:25:19.311Z,17.70
2019-05-01T20:27:52.686Z,17.70
2019-05-01T20:30:20.048Z,17.70
2019-05-01T20:32:50.296Z,17.70
2019-05-01T20:35:23.800Z,17.60
2019-05-01T20:37:52.490Z,17.50
2019-05-01T20:40:23.140Z,17.50
2019-05-01T20:42:53.805Z,17.50
2019-05-01T20:45:24.373Z,17.40
2019-05-01T20:47:54.686Z,17.40
2019-05-01T20:50:25.222Z,17.40
2019-05-01T20:52:55.526Z,17.30
2019-05-01T20:55:25.644Z,17.30
2019-05-01T20:57:57.600Z,17.30
2019-05-01T21:00:28.212Z,17.20
2019-05-01T21:02:58.222Z,17.10
2019-05-01T21:05:32.415Z,17.00
2019-05-01T21:08:03.800Z,17.00
2019-05-01T21:10:36.051Z,16.90
2019-05-01T21:13:06.552Z,16.90
2019-05-01T21:15:36.475Z,16.90
2019-05-01T21:18:06.451Z,16.90
2019-05-01T21:20:36.508Z,16.90
2019-05-01T21:23:10.611Z,16.90
2019-05-01T21:25:38.200Z,16.90
2019-05-01T21:28:08.445Z,16.90
2019-05-01T21:30:38.763Z,16.90
2019-05-01T21:33:11.930Z,16.80
2019-05-01T21:35:41.742Z,16.80
2019-05-01T21:38:11.852Z,16.80
2019-05-01T21:40:43.920Z,16.80
2019-05-01T21:43:13.743Z,16.80
2019-05-01T21:45:43.656Z,16.80
2019-05-01T21:48:13.569Z,16.80
2019-05-01T21:50:44.021Z,16.70
2019-05-01T21:53:14.377Z,16.70
2019-05-01T21:55:44.292Z,16.70
2019-05-01T21:58:15.292Z,16.70
2019-05-01T22:00:46.145Z,16.70
2019-05-01T22:03:16.649Z,16.60
2019-05-01T22:05:48.182Z,16.60
2019-05-01T22:08:18.185Z,16.60
2019-05-01T22:10:52.225Z,16.50
2019-05-01T22:13:24.060Z,16.60
2019-05-01T22:15:53.231Z,16.50
2019-05-01T22:18:24.940Z,16.50
2019-05-01T22:20:59.449Z,16.40
2019-05-01T22:23:33.689Z,16.40
2019-05-01T22:26:05.196Z,16.40
2019-05-01T22:28:36.559Z,16.30
2019-05-01T22:31:08.736Z,16.30
2019-05-01T22:33:40.320Z,16.20
2019-05-01T22:36:10.436Z,16.10
2019-05-01T22:38:40.454Z,16.10
2019-05-01T22:41:14.187Z,15.90
2019-05-01T22:43:44.201Z,15.70
2019-05-01T22:46:15.687Z,15.40
2019-05-01T22:48:45.602Z,15.00
2019-05-01T22:51:16.979Z,14.80
2019-05-01T22:53:48.521Z,14.70
2019-05-01T22:56:18.503Z,14.60
2019-05-01T22:58:49.776Z,14.60
2019-05-01T23:01:20.081Z,14.60
2019-05-01T23:03:54.420Z,14.50
2019-05-01T23:06:24.695Z,14.60
2019-05-01T23:08:54.954Z,14.60
2019-05-01T23:11:26.320Z,14.70
2019-05-01T23:13:56.241Z,14.70
2019-05-01T23:16:29.025Z,14.70
2019-05-01T23:18:59.601Z,14.70
2019-05-01T23:21:29.513Z,14.70
2019-05-01T23:24:01.857Z,14.70
2019-05-01T23:26:31.315Z,14.70
2019-05-01T23:29:01.220Z,14.70
2019-05-01T23:31:31.723Z,14.70
2019-05-01T23:34:01.738Z,14.70
2019-05-01T23:36:32.336Z,14.70
2019-05-01T23:39:02.253Z,14.70
2019-05-01T23:41:45.250Z,14.70
2019-05-01T23:44:05.441Z,14.70
2019-05-01T23:46:35.560Z,14.60
2019-05-01T23:49:05.763Z,14.60
2019-05-01T23:51:35.769Z,14.60
2019-05-01T23:54:06.154Z,14.60
2019-05-01T23:56:36.430Z,14.60
2019-05-01T23:59:06.670Z,14.60
